Time;durP1;ratioP1;P1;durP2;ratioP2;P2;SDS_P1;SDS_P2;PMS_P1;PMS_P2;Temp;Humidity;BMP_temperature;BMP_pressure;BME280_temperature;BME280_humidity;BME280_pressure;Samples;Min_cycle;Max_cycle;Signal;HPM_P1;HPM_P2
2023/04/14 00:00:59;;;;;;;15.48;3.72;;;4.70;99.90;;;;;;7373548;19;20054;-64
2023/04/14 00:03:25;;;;;;;11.02;3.80;;;4.70;99.90;;;;;;7369038;19;20089;-64
2023/04/14 00:05:52;;;;;;;9.80;3.95;;;4.60;99.90;;;;;;7364664;19;20819;-64
2023/04/14 00:08:18;;;;;;;14.57;4.45;;;4.50;99.90;;;;;;7367979;19;20014;-64
2023/04/14 00:10:44;;;;;;;11.35;4.22;;;4.50;99.90;;;;;;7367258;19;20022;-64
2023/04/14 00:13:10;;;;;;;11.57;4.22;;;4.40;99.90;;;;;;7371380;19;20644;-64
2023/04/14 00:15:38;;;;;;;9.98;3.70;;;4.40;99.90;;;;;;7369925;19;20033;-64
2023/04/14 00:18:05;;;;;;;9.95;4.25;;;4.40;99.90;;;;;;7374147;19;20022;-64
2023/04/14 00:20:32;;;;;;;7.78;4.32;;;4.30;99.90;;;;;;7371291;19;20042;-64
2023/04/14 00:22:58;;;;;;;13.52;4.53;;;4.20;99.90;;;;;;7374174;19;20052;-64
2023/04/14 00:25:24;;;;;;;9.05;4.13;;;4.20;99.90;;;;;;7374693;19;20631;-64
2023/04/14 00:27:50;;;;;;;10.60;3.83;;;4.10;99.90;;;;;;7368535;19;20018;-64
2023/04/14 00:30:20;;;;;;;10.40;4.25;;;4.10;99.90;;;;;;7372766;19;20032;-65
2023/04/14 00:32:49;;;;;;;7.78;4.00;;;4.00;99.90;;;;;;7368827;19;20026;-65
2023/04/14 00:35:15;;;;;;;10.38;4.65;;;4.00;99.90;;;;;;7367874;19;20608;-64
2023/04/14 00:37:42;;;;;;;9.57;4.03;;;4.00;99.90;;;;;;7372099;19;20027;-65
2023/04/14 00:40:18;;;;;;;10.15;4.18;;;3.90;99.90;;;;;;7373401;19;20018;-65
2023/04/14 00:42:45;;;;;;;7.38;4.13;;;3.90;99.90;;;;;;7372170;19;20482;-65
2023/04/14 00:45:14;;;;;;;12.60;4.38;;;3.80;99.90;;;;;;7374588;19;20014;-64
2023/04/14 00:47:45;;;;;;;7.25;5.05;;;3.80;99.90;;;;;;7373229;19;20030;-65
2023/04/14 00:50:18;;;;;;;10.77;4.93;;;3.80;99.90;;;;;;7375112;19;20482;-65
2023/04/14 00:52:47;;;;;;;7.90;4.32;;;3.70;99.90;;;;;;7371885;19;20033;-65
2023/04/14 00:55:17;;;;;;;10.13;4.03;;;3.70;99.90;;;;;;7373092;19;20362;-63
2023/04/14 00:57:44;;;;;;;10.13;4.22;;;3.70;99.90;;;;;;7370105;19;20048;-64
2023/04/14 01:00:12;;;;;;;7.72;3.53;;;3.60;99.90;;;;;;7368564;19;20018;-63
2023/04/14 01:02:39;;;;;;;15.50;4.47;;;3.60;99.90;;;;;;7371266;19;20014;-64
2023/04/14 01:05:06;;;;;;;9.32;4.65;;;3.50;99.90;;;;;;7372952;19;20609;-64
2023/04/14 01:07:32;;;;;;;10.48;4.47;;;3.50;99.90;;;;;;7372963;19;20010;-64
2023/04/14 01:09:59;;;;;;;7.80;4.18;;;3.50;99.90;;;;;;7368453;19;20022;-63
2023/04/14 01:12:44;;;;;;;10.55;4.97;;;3.50;99.90;;;;;;7368957;19;20018;-63
2023/04/14 01:15:33;;;;;;;6.95;4.63;;;3.40;99.90;;;;;;7371330;19;20057;-63
2023/04/14 01:18:18;;;;;;;12.65;5.60;;;3.40;99.90;;;;;;7369021;19;20018;-64
2023/04/14 01:20:50;;;;;;;7.95;4.70;;;3.40;99.90;;;;;;7366705;19;20010;-64
2023/04/14 01:23:22;;;;;;;12.15;4.60;;;3.50;99.90;;;;;;7370409;19;20025;-64
2023/04/14 01:26:18;;;;;;;8.00;4.93;;;3.50;99.90;;;;;;7369722;19;20030;-65
2023/04/14 01:29:03;;;;;;;10.52;4.30;;;3.60;99.90;;;;;;7367220;19;20115;-64
2023/04/14 01:31:35;;;;;;;9.52;4.72;;;3.50;99.90;;;;;;7367685;19;20506;-65
2023/04/14 01:34:32;;;;;;;10.75;4.72;;;3.50;99.90;;;;;;7369276;19;20134;-65
2023/04/14 01:37:24;;;;;;;9.68;4.50;;;3.60;99.90;;;;;;7370075;19;20031;-64
2023/04/14 01:39:57;;;;;;;12.10;4.75;;;3.60;99.90;;;;;;7369714;19;20052;-64
2023/04/14 01:42:28;;;;;;;12.18;4.88;;;3.50;99.90;;;;;;7366965;19;20019;-64
2023/04/14 01:44:58;;;;;;;11.90;5.05;;;3.60;99.90;;;;;;7366111;19;20022;-65
2023/04/14 01:47:27;;;;;;;11.43;4.55;;;3.60;99.90;;;;;;7368494;19;20063;-64
2023/04/14 01:49:55;;;;;;;13.90;5.40;;;3.70;99.90;;;;;;7368152;19;20380;-64
2023/04/14 01:52:23;;;;;;;7.65;4.88;;;3.80;99.90;;;;;;7365289;19;20025;-64
2023/04/14 01:54:51;;;;;;;9.38;4.00;;;3.80;99.90;;;;;;7368070;19;20379;-64
2023/04/14 01:57:21;;;;;;;9.65;4.07;;;3.90;99.90;;;;;;7370225;19;20022;-65
2023/04/14 01:59:51;;;;;;;8.88;4.43;;;3.90;99.90;;;;;;7369848;19;20022;-64
2023/04/14 02:02:20;;;;;;;9.68;4.22;;;4.00;99.90;;;;;;7361896;19;20033;-65
2023/04/14 02:04:48;;;;;;;7.40;4.05;;;4.10;99.90;;;;;;7369920;19;20014;-64
2023/04/14 02:07:20;;;;;;;10.38;4.65;;;4.10;99.90;;;;;;7363501;19;20018;-63
2023/04/14 02:09:50;;;;;;;10.30;4.05;;;4.10;99.90;;;;;;7365012;19;20030;-63
2023/04/14 02:12:19;;;;;;;11.98;4.97;;;4.10;99.90;;;;;;7360346;19;20608;-64
2023/04/14 02:14:50;;;;;;;9.73;4.97;;;4.20;99.90;;;;;;7367384;19;21384;-63
2023/04/14 02:17:20;;;;;;;8.00;5.18;;;4.20;99.90;;;;;;7367997;19;20018;-64
2023/04/14 02:19:48;;;;;;;9.52;4.50;;;4.20;99.90;;;;;;7364750;19;20581;-64
2023/04/14 02:22:17;;;;;;;7.60;4.07;;;4.20;99.90;;;;;;7365606;19;20418;-64
2023/04/14 02:24:45;;;;;;;9.70;4.03;;;4.20;99.90;;;;;;7359771;19;20022;-63
2023/04/14 02:27:18;;;;;;;6.72;3.88;;;4.30;99.90;;;;;;7364791;19;20675;-64
2023/04/14 02:29:52;;;;;;;8.48;4.82;;;4.30;99.90;;;;;;7371758;19;20018;-65
2023/04/14 02:32:30;;;;;;;8.35;4.35;;;4.40;99.90;;;;;;7371919;19;20019;-64
2023/04/14 02:35:03;;;;;;;10.02;4.32;;;4.40;99.90;;;;;;7361819;19;20022;-65
2023/04/14 02:37:42;;;;;;;6.15;4.07;;;4.50;99.90;;;;;;7361080;19;21426;-65
2023/04/14 02:40:24;;;;;;;10.23;4.10;;;4.50;99.90;;;;;;7368416;19;20806;-64
2023/04/14 02:43:10;;;;;;;8.20;4.10;;;4.50;99.90;;;;;;7369606;19;20026;-63
2023/04/14 02:45:39;;;;;;;6.85;3.97;;;4.50;99.90;;;;;;7372943;19;20018;-64
2023/04/14 02:48:12;;;;;;;10.15;4.15;;;4.60;99.90;;;;;;7375420;19;20877;-63
2023/04/14 02:50:44;;;;;;;11.15;4.70;;;4.60;99.90;;;;;;7376556;19;20494;-64
2023/04/14 02:53:22;;;;;;;8.32;3.67;;;4.60;99.90;;;;;;7374158;19;20014;-64
2023/04/14 02:55:51;;;;;;;7.88;3.85;;;4.70;99.90;;;;;;7372251;19;20485;-65
2023/04/14 02:58:19;;;;;;;8.75;4.55;;;4.70;99.90;;;;;;7373795;19;20042;-65
2023/04/14 03:00:50;;;;;;;9.13;4.63;;;4.70;99.90;;;;;;7374488;19;20023;-64
2023/04/14 03:03:22;;;;;;;9.32;4.43;;;4.70;99.90;;;;;;7368534;19;20966;-65
2023/04/14 03:05:49;;;;;;;12.13;4.38;;;4.70;99.90;;;;;;7370060;19;20025;-65
2023/04/14 03:08:19;;;;;;;9.43;4.38;;;4.70;99.90;;;;;;7375123;19;20025;-64
2023/04/14 03:10:53;;;;;;;7.80;3.97;;;4.80;99.90;;;;;;7373046;19;20026;-64
2023/04/14 03:13:25;;;;;;;8.30;4.70;;;4.80;99.90;;;;;;7367946;19;20030;-65
2023/04/14 03:15:52;;;;;;;8.85;5.25;;;4.70;99.90;;;;;;7375211;19;21143;-65
2023/04/14 03:18:20;;;;;;;9.90;4.82;;;4.80;99.90;;;;;;7369455;19;20122;-63
2023/04/14 03:20:52;;;;;;;7.57;4.28;;;4.70;99.90;;;;;;7374371;19;20107;-64
2023/04/14 03:23:23;;;;;;;8.27;4.30;;;4.70;99.90;;;;;;7369356;19;20022;-64
2023/04/14 03:25:57;;;;;;;10.70;4.95;;;4.70;99.90;;;;;;7371747;19;21298;-64
2023/04/14 03:28:31;;;;;;;8.05;4.50;;;4.80;99.90;;;;;;7369500;19;20026;-64
2023/04/14 03:31:00;;;;;;;8.20;4.32;;;4.70;99.90;;;;;;7366958;19;20029;-64
2023/04/14 03:33:32;;;;;;;9.00;4.13;;;4.70;99.90;;;;;;7369588;19;20577;-64
2023/04/14 03:36:00;;;;;;;15.98;5.13;;;4.80;99.90;;;;;;7373155;19;20875;-64
2023/04/14 03:38:29;;;;;;;11.23;4.35;;;4.80;99.90;;;;;;7369673;19;20058;-64
2023/04/14 03:40:58;;;;;;;7.55;4.28;;;4.80;99.90;;;;;;7372126;19;20018;-64
2023/04/14 03:43:27;;;;;;;9.05;4.28;;;4.80;99.90;;;;;;7369679;19;20127;-64
2023/04/14 03:46:04;;;;;;;6.80;3.88;;;4.80;99.90;;;;;;7373146;19;20030;-63
2023/04/14 03:48:33;;;;;;;6.63;4.00;;;4.70;99.90;;;;;;7369073;19;20021;-65
2023/04/14 03:51:02;;;;;;;7.40;3.97;;;4.70;99.90;;;;;;7375291;19;20774;-65
2023/04/14 03:53:33;;;;;;;7.55;4.07;;;4.60;99.90;;;;;;7367346;19;20033;-64
2023/04/14 03:56:01;;;;;;;7.47;4.78;;;4.60;99.90;;;;;;7371702;19;20022;-64
2023/04/14 03:58:29;;;;;;;9.48;4.13;;;4.50;99.90;;;;;;7366675;19;20022;-65
2023/04/14 04:01:01;;;;;;;6.20;4.45;;;4.40;99.90;;;;;;7366736;19;20039;-65
2023/04/14 04:03:28;;;;;;;6.53;4.45;;;4.40;99.90;;;;;;7373353;19;20051;-65
2023/04/14 04:05:55;;;;;;;10.68;4.32;;;4.30;99.90;;;;;;7368894;19;20903;-63
2023/04/14 04:08:22;;;;;;;9.13;4.60;;;4.20;99.90;;;;;;7369326;19;20074;-63
2023/04/14 04:10:50;;;;;;;6.80;4.68;;;4.20;99.90;;;;;;7368309;19;20498;-64
2023/04/14 04:13:20;;;;;;;11.50;4.93;;;4.10;99.90;;;;;;7373340;19;20029;-65
2023/04/14 04:15:50;;;;;;;8.85;4.85;;;4.00;99.90;;;;;;7362428;19;20018;-63
2023/04/14 04:18:24;;;;;;;7.50;5.13;;;4.00;99.90;;;;;;7370539;19;20022;-64
2023/04/14 04:20:52;;;;;;;9.23;4.57;;;3.80;99.90;;;;;;7365711;19;20055;-63
2023/04/14 04:23:20;;;;;;;8.80;4.95;;;3.80;99.90;;;;;;7366288;19;20025;-64
2023/04/14 04:25:48;;;;;;;7.88;4.80;;;3.70;99.90;;;;;;7367987;19;20073;-64
2023/04/14 04:28:26;;;;;;;10.30;5.47;;;3.70;99.90;;;;;;7371683;19;20014;-63
2023/04/14 04:30:55;;;;;;;7.13;4.70;;;3.70;99.90;;;;;;7366147;19;20022;-65
2023/04/14 04:33:22;;;;;;;11.35;6.10;;;3.60;99.90;;;;;;7369079;19;20057;-65
2023/04/14 04:35:51;;;;;;;9.35;5.30;;;3.50;99.90;;;;;;7369434;19;21208;-65
2023/04/14 04:38:18;;;;;;;7.30;4.75;;;3.50;99.90;;;;;;7373228;19;20022;-63
2023/04/14 04:40:45;;;;;;;11.68;5.65;;;3.40;99.90;;;;;;7368177;19;20031;-63
2023/04/14 04:43:23;;;;;;;10.70;5.57;;;3.40;99.90;;;;;;7369955;19;20022;-64
2023/04/14 04:46:25;;;;;;;8.88;5.35;;;3.40;99.90;;;;;;7369409;19;20025;-64
2023/04/14 04:48:56;;;;;;;10.27;5.47;;;3.30;99.90;;;;;;7360917;19;20023;-65
2023/04/14 04:51:25;;;;;;;11.18;5.72;;;3.30;99.90;;;;;;7364754;19;20029;-64
2023/04/14 04:53:51;;;;;;;11.18;6.65;;;3.30;99.90;;;;;;7369052;19;20022;-65
2023/04/14 04:56:18;;;;;;;11.88;6.45;;;3.30;99.90;;;;;;7366957;19;20076;-64
2023/04/14 04:58:44;;;;;;;11.70;7.03;;;3.30;99.90;;;;;;7368733;19;20522;-64
2023/04/14 05:01:11;;;;;;;11.10;6.68;;;3.20;99.90;;;;;;7363829;19;21420;-64
2023/04/14 05:03:37;;;;;;;8.90;6.35;;;3.20;99.90;;;;;;7374417;19;20014;-64
2023/04/14 05:06:04;;;;;;;11.20;7.03;;;3.30;99.90;;;;;;7366057;19;20025;-63
2023/04/14 05:08:30;;;;;;;10.75;6.25;;;3.20;99.90;;;;;;7365337;19;20033;-65
2023/04/14 05:10:56;;;;;;;12.55;7.32;;;3.20;99.90;;;;;;7365515;19;20470;-65
2023/04/14 05:13:23;;;;;;;11.82;5.93;;;3.20;99.90;;;;;;7364236;19;20022;-65
2023/04/14 05:15:50;;;;;;;10.43;6.72;;;3.20;99.90;;;;;;7362662;19;20587;-64
2023/04/14 05:18:20;;;;;;;10.95;6.80;;;3.30;99.90;;;;;;7361786;19;20015;-64
2023/04/14 05:20:46;;;;;;;13.82;7.63;;;3.30;99.90;;;;;;7369491;19;20026;-65
2023/04/14 05:23:12;;;;;;;9.98;6.15;;;3.30;99.90;;;;;;7368644;19;20033;-64
2023/04/14 05:25:39;;;;;;;10.95;6.88;;;3.30;99.90;;;;;;7369444;19;20018;-64
2023/04/14 05:28:12;;;;;;;15.10;7.32;;;3.30;99.90;;;;;;7368569;19;20862;-65
2023/04/14 05:30:41;;;;;;;13.20;7.38;;;3.30;99.90;;;;;;7364062;19;20023;-65
2023/04/14 05:33:08;;;;;;;12.20;7.18;;;3.30;99.90;;;;;;7366353;19;20116;-64
2023/04/14 05:35:34;;;;;;;12.05;7.20;;;3.40;99.90;;;;;;7363349;19;20048;-64
2023/04/14 05:38:00;;;;;;;10.90;6.22;;;3.40;99.90;;;;;;7364848;19;20018;-64
2023/04/14 05:40:27;;;;;;;11.88;6.53;;;3.40;99.90;;;;;;7359483;19;20014;-65
2023/04/14 05:42:56;;;;;;;10.23;5.70;;;3.50;99.90;;;;;;7368927;19;20026;-64
2023/04/14 05:45:23;;;;;;;9.70;6.40;;;3.50;99.90;;;;;;7366770;19;20030;-64
2023/04/14 05:47:50;;;;;;;11.00;6.18;;;3.50;99.90;;;;;;7366203;19;20026;-64
2023/04/14 05:50:16;;;;;;;11.77;6.45;;;3.60;99.90;;;;;;7361366;19;20034;-63
2023/04/14 05:52:42;;;;;;;8.75;6.00;;;3.60;99.90;;;;;;7363176;19;20474;-63
2023/04/14 05:55:09;;;;;;;12.80;6.68;;;3.60;99.90;;;;;;7369373;19;20019;-64
2023/04/14 05:57:36;;;;;;;9.70;6.15;;;3.70;99.90;;;;;;7368415;19;20047;-64
2023/04/14 06:00:02;;;;;;;11.15;6.20;;;3.80;99.90;;;;;;7368833;19;20042;-64
2023/04/14 06:02:41;;;;;;;8.00;5.50;;;3.90;99.90;;;;;;7370049;19;20018;-65
2023/04/14 06:05:08;;;;;;;8.57;5.43;;;4.10;99.90;;;;;;7370688;19;20023;-64
2023/04/14 06:07:34;;;;;;;8.70;4.72;;;4.20;99.90;;;;;;7366070;19;20022;-64
2023/04/14 06:10:01;;;;;;;8.30;4.90;;;4.40;99.90;;;;;;7369332;19;20018;-64
2023/04/14 06:12:27;;;;;;;9.80;4.45;;;4.70;99.90;;;;;;7366930;19;20022;-64
2023/04/14 06:14:54;;;;;;;9.82;5.10;;;4.80;99.90;;;;;;7365863;19;20018;-63
2023/04/14 06:17:21;;;;;;;7.68;4.63;;;5.20;99.90;;;;;;7361342;19;20014;-64
2023/04/14 06:19:47;;;;;;;7.63;4.00;;;5.50;99.90;;;;;;7364806;19;20033;-63
2023/04/14 06:22:18;;;;;;;8.95;4.20;;;5.90;99.90;;;;;;7365344;19;20766;-63
2023/04/14 06:24:47;;;;;;;10.30;4.82;;;6.20;99.90;;;;;;7361081;19;20086;-65
2023/04/14 06:27:14;;;;;;;5.75;3.45;;;6.60;99.90;;;;;;7367988;19;20018;-63
2023/04/14 06:29:41;;;;;;;7.10;3.78;;;6.70;99.90;;;;;;7362419;19;20014;-64
2023/04/14 06:32:08;;;;;;;10.05;3.90;;;6.90;99.90;;;;;;7371217;19;20108;-64
2023/04/14 06:34:34;;;;;;;10.52;4.00;;;7.00;99.90;;;;;;7363562;19;20050;-64
2023/04/14 06:37:01;;;;;;;7.63;3.80;;;7.30;99.90;;;;;;7365812;19;20022;-64
2023/04/14 06:39:27;;;;;;;7.05;3.85;;;7.50;99.90;;;;;;7367977;19;20029;-65
2023/04/14 06:41:53;;;;;;;8.50;4.18;;;7.60;99.90;;;;;;7359262;19;20022;-65
2023/04/14 06:44:19;;;;;;;8.90;3.58;;;7.90;99.90;;;;;;7368401;19;20014;-65
2023/04/14 06:46:46;;;;;;;4.70;3.17;;;8.10;99.90;;;;;;7366031;19;20103;-65
2023/04/14 06:49:14;;;;;;;12.23;4.10;;;8.30;99.90;;;;;;7370587;19;20061;-64
2023/04/14 06:51:40;;;;;;;7.43;3.22;;;8.40;99.90;;;;;;7355290;19;20019;-64
2023/04/14 06:54:06;;;;;;;10.07;3.67;;;8.60;99.90;;;;;;7367595;19;20305;-64
2023/04/14 06:56:33;;;;;;;9.50;4.25;;;8.80;99.90;;;;;;7361089;19;20029;-64
2023/04/14 06:58:59;;;;;;;14.10;3.13;;;8.70;99.90;;;;;;7365546;19;20019;-64
2023/04/14 07:01:25;;;;;;;41.55;33.33;;;9.00;99.90;;;;;;7366429;19;20030;-64
2023/04/14 07:03:52;;;;;;;10.60;3.92;;;9.40;99.90;;;;;;7359661;19;20758;-63
2023/04/14 07:06:18;;;;;;;9.02;3.10;;;9.90;99.90;;;;;;7365500;19;20780;-62
2023/04/14 07:08:45;;;;;;;7.50;2.80;;;10.20;99.90;;;;;;7361471;19;20015;-65
2023/04/14 07:11:11;;;;;;;11.25;3.30;;;10.40;99.90;;;;;;7365833;19;20026;-65
2023/04/14 07:13:39;;;;;;;9.52;2.90;;;10.40;99.90;;;;;;7364505;19;20046;-64
2023/04/14 07:16:06;;;;;;;7.65;3.00;;;10.70;99.90;;;;;;7374964;19;20022;-66
2023/04/14 07:18:33;;;;;;;9.63;3.05;;;10.90;99.90;;;;;;7374846;19;20018;-63
2023/04/14 07:21:00;;;;;;;7.57;2.90;;;11.00;99.90;;;;;;7368619;19;20035;-64
2023/04/14 07:23:27;;;;;;;7.20;2.88;;;11.40;99.90;;;;;;7366877;19;20041;-65
2023/04/14 07:25:56;;;;;;;5.90;2.92;;;11.70;99.90;;;;;;7372409;19;20086;-65
2023/04/14 07:28:24;;;;;;;8.25;3.08;;;11.90;99.90;;;;;;7371563;19;20482;-65
2023/04/14 07:30:51;;;;;;;13.00;2.90;;;12.20;99.90;;;;;;7371488;19;20010;-65
2023/04/14 07:33:18;;;;;;;12.75;3.35;;;12.40;99.90;;;;;;7374716;19;20015;-64
2023/04/14 07:35:45;;;;;;;6.90;2.83;;;12.70;99.90;;;;;;7368848;19;20019;-66
2023/04/14 07:38:21;;;;;;;7.15;2.70;;;12.70;99.90;;;;;;7376723;19;20015;-64
2023/04/14 07:40:47;;;;;;;9.43;2.97;;;13.20;99.90;;;;;;7371939;19;20022;-64
2023/04/14 07:43:13;;;;;;;10.75;3.03;;;13.30;99.90;;;;;;7375928;19;20030;-65
2023/04/14 07:45:41;;;;;;;11.57;3.40;;;13.60;99.90;;;;;;7370323;19;21083;-64
2023/04/14 07:48:07;;;;;;;7.55;2.58;;;13.70;99.90;;;;;;7374479;19;20799;-65
2023/04/14 07:50:34;;;;;;;6.65;2.80;;;13.80;99.90;;;;;;7376513;19;20477;-64
2023/04/14 07:53:00;;;;;;;7.75;2.80;;;13.80;99.90;;;;;;7371265;19;21914;-64
2023/04/14 07:55:27;;;;;;;9.15;3.70;;;13.60;99.90;;;;;;7367622;19;20026;-64
2023/04/14 07:57:53;;;;;;;9.00;2.92;;;14.00;99.90;;;;;;7372306;19;20089;-63
2023/04/14 08:00:21;;;;;;;9.68;2.70;;;14.20;99.90;;;;;;7371251;19;20022;-64
2023/04/14 08:02:48;;;;;;;7.72;2.20;;;14.10;99.90;;;;;;7376976;19;20501;-65
2023/04/14 08:05:14;;;;;;;9.60;2.80;;;14.40;99.90;;;;;;7371388;19;20018;-63
2023/04/14 08:07:41;;;;;;;7.78;2.53;;;14.70;99.90;;;;;;7369267;19;20026;-62
2023/04/14 08:10:07;;;;;;;8.70;2.70;;;14.70;99.90;;;;;;7375620;19;20020;-63
2023/04/14 08:12:33;;;;;;;7.35;2.60;;;14.90;99.90;;;;;;7369766;19;20068;-63
2023/04/14 08:15:00;;;;;;;6.65;2.60;;;15.10;99.90;;;;;;7373617;19;20022;-63
2023/04/14 08:17:26;;;;;;;9.23;3.05;;;15.20;99.90;;;;;;7371070;19;20669;-64
2023/04/14 08:19:52;;;;;;;5.88;2.42;;;15.30;99.90;;;;;;7373609;19;20042;-64
2023/04/14 08:22:18;;;;;;;6.82;2.55;;;15.40;99.90;;;;;;7367173;19;21157;-64
2023/04/14 08:24:47;;;;;;;7.85;2.75;;;15.90;99.90;;;;;;7374543;19;20029;-64
2023/04/14 08:27:13;;;;;;;8.05;2.55;;;16.00;99.00;;;;;;7372743;19;20022;-64
2023/04/14 08:29:39;;;;;;;8.70;2.67;;;15.50;94.00;;;;;;7373328;19;20025;-63
2023/04/14 08:32:05;;;;;;;7.35;2.30;;;16.00;94.50;;;;;;7375185;19;20693;-64
2023/04/14 08:34:31;;;;;;;8.38;2.47;;;15.90;88.70;;;;;;7375573;19;20022;-64
2023/04/14 08:36:59;;;;;;;6.65;2.83;;;16.00;79.10;;;;;;7369068;19;20651;-64
2023/04/14 08:39:25;;;;;;;9.15;3.33;;;16.50;72.90;;;;;;7372220;19;20018;-65
2023/04/14 08:41:54;;;;;;;8.13;2.65;;;16.50;71.80;;;;;;7372791;19;20021;-64
2023/04/14 08:44:21;;;;;;;10.57;2.65;;;16.60;70.30;;;;;;7378063;19;20714;-65
2023/04/14 08:46:51;;;;;;;9.13;2.80;;;16.70;67.80;;;;;;7369436;19;20696;-64
2023/04/14 08:49:32;;;;;;;7.28;2.50;;;17.00;69.10;;;;;;7376615;19;20386;-63
2023/04/14 08:52:01;;;;;;;8.38;2.53;;;17.10;66.80;;;;;;7371379;19;20024;-63
2023/04/14 08:54:29;;;;;;;7.35;2.10;;;17.00;66.30;;;;;;7375647;19;20034;-64
2023/04/14 08:56:57;;;;;;;7.85;2.67;;;17.50;65.90;;;;;;7371163;19;20064;-63
2023/04/14 08:59:26;;;;;;;9.32;2.72;;;17.20;63.60;;;;;;7371091;19;20018;-63
2023/04/14 09:01:54;;;;;;;26.88;21.08;;;17.40;63.70;;;;;;7367337;19;20022;-59
2023/04/14 09:04:22;;;;;;;8.35;2.65;;;17.80;64.30;;;;;;7371934;19;21570;-64
2023/04/14 09:06:48;;;;;;;8.77;2.10;;;18.00;63.60;;;;;;7366219;19;20025;-65
2023/04/14 09:09:15;;;;;;;8.38;2.25;;;17.80;61.80;;;;;;7373835;19;20099;-64
2023/04/14 09:11:41;;;;;;;9.43;2.10;;;18.30;62.40;;;;;;7372468;19;20014;-65
2023/04/14 09:14:10;;;;;;;7.93;2.35;;;18.20;60.70;;;;;;7371951;19;20056;-65
2023/04/14 09:16:36;;;;;;;9.15;2.33;;;18.60;60.20;;;;;;7371284;19;20022;-65
2023/04/14 09:19:03;;;;;;;8.40;2.30;;;18.50;59.60;;;;;;7370385;19;20043;-64
2023/04/14 09:21:30;;;;;;;7.88;2.15;;;18.50;58.60;;;;;;7372598;19;20011;-64
2023/04/14 09:23:56;;;;;;;8.85;2.35;;;18.50;56.60;;;;;;7372368;19;20860;-64
2023/04/14 09:26:27;;;;;;;10.90;3.30;;;18.40;56.30;;;;;;7370332;19;20011;-64
2023/04/14 09:28:53;;;;;;;8.15;2.95;;;18.20;56.30;;;;;;7374332;19;20493;-64
2023/04/14 09:31:19;;;;;;;10.15;2.67;;;18.00;56.20;;;;;;7367446;19;20010;-66
2023/04/14 09:33:49;;;;;;;7.63;2.63;;;18.10;56.80;;;;;;7372493;19;20103;-66
2023/04/14 09:36:21;;;;;;;7.70;2.20;;;18.10;55.90;;;;;;7368163;19;20019;-65
2023/04/14 09:38:49;;;;;;;5.53;2.28;;;18.30;54.60;;;;;;7367653;19;20533;-65
2023/04/14 09:41:21;;;;;;;8.15;2.75;;;18.30;54.70;;;;;;7373728;19;20010;-66
2023/04/14 09:43:54;;;;;;;8.90;2.58;;;18.50;54.30;;;;;;7373728;19;20067;-64
2023/04/14 09:46:20;;;;;;;7.90;2.30;;;18.70;54.10;;;;;;7373744;19;20400;-65
2023/04/14 09:48:54;;;;;;;11.90;2.65;;;18.80;55.00;;;;;;7373758;19;20050;-65
2023/04/14 09:51:28;;;;;;;7.90;2.30;;;19.00;53.80;;;;;;7374110;19;20018;-65
2023/04/14 09:54:04;;;;;;;8.20;3.08;;;19.60;54.50;;;;;;7375960;19;20022;-65
2023/04/14 09:56:30;;;;;;;8.00;3.47;;;19.50;52.70;;;;;;7375842;19;20400;-64
2023/04/14 09:59:01;;;;;;;7.50;2.10;;;19.50;53.90;;;;;;7371091;19;20507;-65
2023/04/14 10:01:31;;;;;;;4.72;2.15;;;20.10;53.30;;;;;;7375297;19;20049;-66
2023/04/14 10:03:57;;;;;;;10.35;2.65;;;20.20;52.40;;;;;;7375269;19;20038;-66
2023/04/14 10:06:24;;;;;;;8.02;2.38;;;19.70;51.30;;;;;;7373946;19;20101;-66
2023/04/14 10:08:52;;;;;;;10.38;2.45;;;20.20;51.50;;;;;;7371481;19;20704;-66
2023/04/14 10:11:24;;;;;;;10.60;2.92;;;19.90;50.40;;;;;;7373225;19;20866;-66
2023/04/14 10:14:03;;;;;;;9.30;2.63;;;20.20;51.60;;;;;;7373052;19;20074;-66
2023/04/14 10:16:30;;;;;;;7.72;2.38;;;20.30;50.20;;;;;;7375933;19;20033;-66
2023/04/14 10:18:57;;;;;;;8.55;2.97;;;20.20;49.50;;;;;;7370554;19;20025;-66
2023/04/14 10:21:24;;;;;;;9.40;2.30;;;20.50;51.60;;;;;;7375738;19;20029;-65
2023/04/14 10:23:51;;;;;;;8.75;3.17;;;20.70;51.30;;;;;;7371881;19;20022;-65
2023/04/14 10:26:18;;;;;;;7.13;2.20;;;20.30;51.30;;;;;;7376066;19;20589;-66
2023/04/14 10:28:48;;;;;;;8.82;2.53;;;20.50;49.70;;;;;;7371931;19;20064;-66
2023/04/14 10:31:27;;;;;;;8.32;2.70;;;20.60;50.70;;;;;;7375854;19;20015;-66
2023/04/14 10:33:54;;;;;;;7.93;2.58;;;20.80;49.60;;;;;;7370971;19;20026;-66
2023/04/14 10:36:27;;;;;;;8.95;2.47;;;20.80;48.40;;;;;;7371749;19;20018;-66
2023/04/14 10:38:59;;;;;;;9.40;2.30;;;21.30;48.40;;;;;;7366135;19;20023;-65
2023/04/14 10:41:25;;;;;;;7.82;2.38;;;21.40;49.40;;;;;;7373938;19;20026;-66
2023/04/14 10:43:52;;;;;;;6.85;2.58;;;21.20;48.40;;;;;;7375586;19;20032;-66
2023/04/14 10:46:20;;;;;;;7.97;2.00;;;21.50;48.50;;;;;;7373751;19;20508;-66
2023/04/14 10:48:48;;;;;;;6.63;2.17;;;21.30;47.30;;;;;;7374773;19;21080;-66
2023/04/14 10:51:16;;;;;;;8.38;2.42;;;21.30;46.70;;;;;;7382414;19;20043;-66
2023/04/14 10:53:45;;;;;;;8.77;2.10;;;21.40;46.90;;;;;;7381631;19;20025;-66
2023/04/14 10:56:12;;;;;;;10.77;2.97;;;21.70;46.00;;;;;;7380128;19;20680;-66
2023/04/14 10:58:39;;;;;;;8.25;2.40;;;21.60;45.80;;;;;;7377041;19;20815;-66
2023/04/14 11:01:23;;;;;;;11.93;2.67;;;21.80;46.30;;;;;;7376478;19;20022;-65
2023/04/14 11:03:49;;;;;;;6.55;2.08;;;22.40;46.80;;;;;;7378231;19;20014;-66
2023/04/14 11:06:46;;;;;;;8.48;2.35;;;22.40;47.00;;;;;;7377447;19;20018;-67
2023/04/14 11:09:36;;;;;;;8.57;2.25;;;21.60;45.10;;;;;;7378547;19;20143;-66
2023/04/14 11:12:23;;;;;;;9.40;2.28;;;20.90;47.10;;;;;;7383659;19;20015;-66
2023/04/14 11:15:03;;;;;;;7.53;2.55;;;20.60;47.10;;;;;;7378803;19;20037;-65
2023/04/14 11:17:32;;;;;;;5.63;2.00;;;20.90;47.40;;;;;;7377810;19;20022;-64
2023/04/14 11:19:59;;;;;;;8.00;1.40;;;20.70;48.40;;;;;;7375448;19;20022;-61
2023/04/14 11:22:45;;;;;;;9.48;2.13;;;21.30;45.80;;;;;;7374635;19;20018;-62
2023/04/14 11:25:13;;;;;;;6.47;1.73;;;21.20;43.10;;;;;;7378126;19;20019;-62
2023/04/14 11:27:41;;;;;;;8.82;2.45;;;20.90;44.90;;;;;;7376572;19;20049;-61
2023/04/14 11:30:16;;;;;;;6.85;2.05;;;20.80;45.80;;;;;;7371777;19;20020;-61
2023/04/14 11:32:50;;;;;;;6.38;1.90;;;21.10;46.00;;;;;;7371431;19;20022;-61
2023/04/14 11:35:17;;;;;;;7.47;2.30;;;21.00;45.70;;;;;;7379661;19;20402;-61
2023/04/14 11:37:44;;;;;;;5.22;1.90;;;20.90;44.60;;;;;;7375889;19;20039;-61
2023/04/14 11:40:12;;;;;;;6.95;2.38;;;20.50;44.90;;;;;;7373776;19;20018;-61
2023/04/14 11:42:43;;;;;;;6.28;2.10;;;19.60;46.20;;;;;;7373786;19;20022;-61
2023/04/14 11:45:12;;;;;;;7.40;2.25;;;19.40;46.30;;;;;;7371750;19;20042;-63
2023/04/14 11:47:38;;;;;;;5.95;2.00;;;20.40;46.70;;;;;;7377017;19;20014;-62
2023/04/14 11:50:06;;;;;;;7.60;2.40;;;20.30;45.40;;;;;;7376716;19;20029;-61
2023/04/14 11:52:33;;;;;;;10.07;3.03;;;19.90;45.30;;;;;;7373660;19;20042;-61
2023/04/14 11:55:00;;;;;;;9.38;3.30;;;19.60;46.00;;;;;;7374246;19;20018;-61
2023/04/14 11:57:26;;;;;;;9.23;2.65;;;19.00;47.20;;;;;;7375524;19;20022;-60
2023/04/14 11:59:56;;;;;;;9.68;2.58;;;18.80;47.10;;;;;;7371930;19;20018;-61
2023/04/14 12:02:22;;;;;;;7.28;2.20;;;19.30;46.50;;;;;;7371295;19;20413;-61
2023/04/14 12:04:50;;;;;;;7.00;2.60;;;19.00;46.60;;;;;;7376701;19;20034;-61
2023/04/14 12:07:17;;;;;;;7.25;2.78;;;18.90;46.20;;;;;;7374727;19;20019;-63
2023/04/14 12:09:48;;;;;;;9.07;2.50;;;19.20;47.70;;;;;;7372754;19;20026;-67
2023/04/14 12:12:19;;;;;;;16.03;8.33;;;18.60;47.30;;;;;;7379456;19;20868;-65
2023/04/14 12:14:47;;;;;;;9.02;3.20;;;18.50;48.20;;;;;;7375623;19;20023;-67
2023/04/14 12:17:14;;;;;;;7.50;2.30;;;18.00;47.40;;;;;;7369900;19;20026;-67
2023/04/14 12:19:41;;;;;;;8.60;2.40;;;18.60;47.30;;;;;;7374129;19;20018;-67
2023/04/14 12:22:08;;;;;;;8.80;2.85;;;19.30;46.80;;;;;;7372402;19;20018;-66
2023/04/14 12:24:36;;;;;;;9.63;2.42;;;20.00;46.00;;;;;;7376350;19;20109;-65
2023/04/14 12:27:05;;;;;;;9.40;3.13;;;20.50;46.20;;;;;;7371760;19;20049;-65
2023/04/14 12:29:35;;;;;;;7.32;2.13;;;21.10;46.10;;;;;;7372521;19;20030;-65
2023/04/14 12:32:12;;;;;;;7.72;2.10;;;21.80;44.40;;;;;;7372920;19;20104;-64
2023/04/14 12:34:39;;;;;;;6.35;2.45;;;22.20;43.30;;;;;;7374568;19;20015;-66
2023/04/14 12:37:10;;;;;;;7.60;2.63;;;22.30;44.20;;;;;;7371609;19;20043;-66
2023/04/14 12:39:51;;;;;;;6.80;2.47;;;22.80;43.40;;;;;;7371910;19;20023;-66
2023/04/14 12:42:18;;;;;;;8.15;2.50;;;23.20;41.70;;;;;;7367226;19;20028;-66
2023/04/14 12:45:15;;;;;;;8.77;3.13;;;22.80;42.30;;;;;;7369013;19;20022;-66
2023/04/14 12:47:53;;;;;;;6.93;2.10;;;21.90;41.10;;;;;;7364946;19;20031;-65
2023/04/14 12:50:29;;;;;;;8.07;2.75;;;22.70;42.40;;;;;;7366157;19;20612;-64
2023/04/14 12:52:56;;;;;;;8.30;2.65;;;22.60;41.10;;;;;;7372376;19;20026;-65
2023/04/14 12:55:28;;;;;;;9.23;2.63;;;22.10;41.90;;;;;;7371983;19;20046;-65
2023/04/14 12:57:55;;;;;;;6.78;2.10;;;22.40;41.80;;;;;;7371057;19;20024;-65
2023/04/14 13:00:25;;;;;;;8.02;2.30;;;22.10;41.40;;;;;;7369793;19;20038;-64
2023/04/14 13:02:51;;;;;;;8.55;2.50;;;22.30;41.90;;;;;;7367983;19;20031;-65